Time;durP1;ratioP1;P1;durP2;ratioP2;P2;SDS_P1;SDS_P2;PMS_P1;PMS_P2;Temp;Humidity;BMP_temperature;BMP_pressure;BME280_temperature;BME280_humidity;BME280_pressure;Samples;Min_cycle;Max_cycle;Signal;HPM_P1;HPM_P2
2022/06/28 00:00:43;;;;;;;4.28;3.10;;;17.00;99.90;;;;;;5073774;28;20040;-63
2022/06/28 00:03:09;;;;;;;5.10;2.95;;;16.90;99.90;;;;;;5073293;28;20054;-63
2022/06/28 00:05:36;;;;;;;2.92;2.55;;;16.90;99.90;;;;;;5065159;28;20170;-62
2022/06/28 00:08:04;;;;;;;142.25;11.05;;;16.80;99.90;;;;;;5073641;28;20041;-63
2022/06/28 00:10:30;;;;;;;14.10;3.90;;;16.70;99.90;;;;;;5072290;28;20492;-63
2022/06/28 00:12:59;;;;;;;6.28;2.88;;;16.70;99.90;;;;;;5065234;28;20044;-63
2022/06/28 00:18:12;;;;;;;5.53;3.05;;;16.60;99.90;;;;;;5068547;28;20056;-63
2022/06/28 00:20:38;;;;;;;5.00;3.55;;;16.60;99.90;;;;;;5069937;28;20052;-63
2022/06/28 00:23:05;;;;;;;17.10;4.00;;;16.60;99.90;;;;;;5061507;28;20103;-63
2022/06/28 00:25:32;;;;;;;5.45;3.90;;;16.50;99.90;;;;;;5053074;28;20063;-63
2022/06/28 00:27:59;;;;;;;7.13;4.55;;;16.50;99.90;;;;;;5067685;28;20041;-63
2022/06/28 00:30:26;;;;;;;5.82;4.20;;;16.50;99.90;;;;;;5066726;28;20052;-63
2022/06/28 00:32:52;;;;;;;7.88;4.68;;;16.40;99.90;;;;;;5073303;28;20427;-63
2022/06/28 00:35:19;;;;;;;7.45;4.40;;;16.50;99.90;;;;;;5071069;28;20128;-63
2022/06/28 00:37:48;;;;;;;7.07;4.82;;;16.40;99.90;;;;;;5062574;28;20040;-63
2022/06/28 00:40:15;;;;;;;6.82;4.53;;;16.50;99.90;;;;;;5051576;28;20048;-62
2022/06/28 00:42:41;;;;;;;6.43;4.75;;;16.50;99.90;;;;;;5058918;28;20056;-63
2022/06/28 00:45:10;;;;;;;5.95;4.60;;;16.60;99.90;;;;;;5064727;28;20044;-63
2022/06/28 00:47:38;;;;;;;11.23;6.90;;;16.50;99.90;;;;;;5071609;28;20044;-62
2022/06/28 00:50:06;;;;;;;11.32;7.45;;;16.50;99.90;;;;;;5071321;28;20093;-63
2022/06/28 00:52:32;;;;;;;10.48;8.05;;;16.50;99.90;;;;;;5071230;28;20527;-63
2022/06/28 00:54:59;;;;;;;9.90;7.68;;;16.50;99.90;;;;;;5064790;28;20519;-63
2022/06/28 00:57:26;;;;;;;12.68;8.25;;;16.50;99.90;;;;;;5068286;28;20128;-63
2022/06/28 00:59:53;;;;;;;14.38;8.13;;;16.60;99.90;;;;;;5067458;28;20040;-63
2022/06/28 01:02:20;;;;;;;10.85;7.57;;;16.60;99.90;;;;;;5067688;28;20041;-63
2022/06/28 01:04:46;;;;;;;10.48;6.70;;;16.60;99.90;;;;;;5071457;28;20075;-62
2022/06/28 01:07:14;;;;;;;7.80;6.25;;;16.60;99.90;;;;;;5071211;28;20131;-63
2022/06/28 01:09:41;;;;;;;7.78;6.30;;;16.60;99.90;;;;;;5062733;28;20043;-63
2022/06/28 01:12:08;;;;;;;6.43;5.53;;;16.70;99.90;;;;;;5062995;28;20037;-63
2022/06/28 01:14:36;;;;;;;8.07;5.65;;;16.70;99.90;;;;;;5067904;28;20090;-63
2022/06/28 01:17:11;;;;;;;10.30;6.07;;;16.80;99.90;;;;;;5071310;28;20557;-63
2022/06/28 01:20:00;;;;;;;10.13;6.40;;;16.80;99.90;;;;;;5071052;28;20040;-63
2022/06/28 01:22:47;;;;;;;7.13;6.10;;;16.90;99.90;;;;;;5063914;28;20071;-63
2022/06/28 01:25:18;;;;;;;10.68;7.18;;;16.70;99.90;;;;;;5071310;28;20133;-63
2022/06/28 01:27:47;;;;;;;13.20;7.60;;;16.80;99.90;;;;;;5068753;28;20041;-62
2022/06/28 01:30:15;;;;;;;10.98;6.35;;;16.80;99.90;;;;;;5070389;28;20087;-63
2022/06/28 01:32:55;;;;;;;14.13;7.68;;;16.70;99.90;;;;;;5071026;28;20528;-63
2022/06/28 01:35:22;;;;;;;14.25;7.85;;;16.90;99.90;;;;;;5070195;28;20040;-62
2022/06/28 01:37:49;;;;;;;9.40;7.25;;;16.90;99.90;;;;;;5062325;28;20052;-63
2022/06/28 01:40:18;;;;;;;9.57;7.43;;;16.90;99.90;;;;;;5070241;28;20045;-63
2022/06/28 01:42:47;;;;;;;17.45;7.68;;;16.90;99.90;;;;;;5070880;28;20044;-62
2022/06/28 01:45:14;;;;;;;10.10;6.57;;;16.90;99.90;;;;;;5071232;28;20055;-63
2022/06/28 01:47:44;;;;;;;12.77;7.20;;;17.00;99.90;;;;;;5070298;28;20079;-62
2022/06/28 01:50:37;;;;;;;11.77;7.97;;;17.00;99.90;;;;;;5070104;28;20044;-62
2022/06/28 01:53:04;;;;;;;12.65;8.05;;;17.00;99.90;;;;;;5070674;28;20075;-63
2022/06/28 01:56:04;;;;;;;11.93;7.57;;;17.00;99.90;;;;;;5055887;28;20051;-63
2022/06/28 01:58:51;;;;;;;10.85;7.32;;;17.00;99.90;;;;;;5050368;28;20095;-62
2022/06/28 02:01:22;;;;;;;8.40;6.75;;;17.00;99.90;;;;;;5070046;28;20407;-62
2022/06/28 02:03:51;;;;;;;11.00;6.53;;;17.00;99.90;;;;;;5071154;28;20036;-63
2022/06/28 02:06:39;;;;;;;8.05;6.75;;;17.10;99.90;;;;;;5062934;28;20192;-63
2022/06/28 02:09:09;;;;;;;10.00;7.30;;;17.00;99.90;;;;;;5084236;22;20425;-65
2022/06/28 02:11:42;;;;;;;9.55;7.22;;;17.00;99.90;;;;;;5066581;28;20508;-65
2022/06/28 02:14:09;;;;;;;8.27;5.93;;;16.90;99.90;;;;;;5069894;28;20086;-64
2022/06/28 02:16:37;;;;;;;9.90;6.40;;;16.90;99.90;;;;;;5070405;28;20057;-64
2022/06/28 02:19:04;;;;;;;12.48;6.90;;;16.90;99.90;;;;;;5069223;28;20102;-65
2022/06/28 02:21:36;;;;;;;10.05;6.25;;;16.90;99.90;;;;;;5060306;28;20151;-65
2022/06/28 02:24:05;;;;;;;11.98;7.45;;;16.90;99.90;;;;;;5057918;28;20037;-65
2022/06/28 02:26:32;;;;;;;13.30;7.82;;;16.90;99.90;;;;;;5067538;28;20045;-64
2022/06/28 02:29:00;;;;;;;8.98;6.47;;;16.90;99.90;;;;;;5066944;28;20041;-65
2022/06/28 02:31:29;;;;;;;8.30;6.57;;;16.90;99.90;;;;;;5065555;28;20041;-65
2022/06/28 02:33:56;;;;;;;10.15;6.18;;;16.90;99.90;;;;;;5070018;28;20447;-65
2022/06/28 02:41:39;;;;;;;5.05;4.13;;;17.00;99.90;;;;;;5049598;28;20049;-65
2022/06/28 02:44:06;;;;;;;6.07;4.78;;;17.00;99.90;;;;;;5060987;28;20491;-65
2022/06/28 02:46:33;;;;;;;5.88;4.57;;;17.00;99.90;;;;;;5061637;28;20455;-65
2022/06/28 02:48:59;;;;;;;6.40;3.95;;;17.00;99.90;;;;;;5069699;28;20044;-65
2022/06/28 02:51:26;;;;;;;6.38;4.25;;;17.00;99.90;;;;;;5069554;28;20059;-65
2022/06/28 02:53:53;;;;;;;4.03;3.33;;;17.10;99.90;;;;;;5061086;28;20037;-65
2022/06/28 02:56:21;;;;;;;3.63;3.25;;;17.10;99.90;;;;;;5055104;28;20128;-65
2022/06/28 02:58:48;;;;;;;4.10;3.65;;;17.10;99.90;;;;;;5051958;28;20045;-65
2022/06/28 03:01:15;;;;;;;6.20;3.90;;;17.10;99.90;;;;;;5053658;28;20049;-65
2022/06/28 03:03:42;;;;;;;5.30;4.78;;;17.10;99.90;;;;;;5057388;28;20041;-65
2022/06/28 03:06:10;;;;;;;6.05;4.60;;;17.00;99.90;;;;;;5060569;28;20045;-65
2022/06/28 03:08:39;;;;;;;5.95;4.97;;;17.00;99.90;;;;;;5053608;28;20515;-65
2022/06/28 03:11:06;;;;;;;5.43;4.05;;;17.10;99.90;;;;;;5053179;28;20044;-65
2022/06/28 03:13:33;;;;;;;4.63;3.95;;;16.90;99.90;;;;;;5068469;28;20036;-65
2022/06/28 03:16:02;;;;;;;8.45;4.47;;;17.00;99.90;;;;;;5066798;28;20443;-65
2022/06/28 03:18:29;;;;;;;6.05;4.00;;;17.00;99.90;;;;;;5073536;28;20444;-65
2022/06/28 03:20:55;;;;;;;5.90;4.20;;;17.00;99.90;;;;;;5072523;28;20078;-65
2022/06/28 03:23:22;;;;;;;7.03;4.53;;;17.00;99.90;;;;;;5064988;28;20041;-65
2022/06/28 03:25:49;;;;;;;10.20;4.43;;;17.00;99.90;;;;;;5056174;28;20056;-64
2022/06/28 03:28:16;;;;;;;5.28;4.47;;;16.90;99.90;;;;;;5053365;28;20044;-65
2022/06/28 03:30:51;;;;;;;6.75;4.90;;;16.90;99.90;;;;;;5063333;28;20493;-65
2022/06/28 03:33:17;;;;;;;6.53;4.97;;;16.90;99.90;;;;;;5067320;28;20052;-65
2022/06/28 03:35:44;;;;;;;7.10;5.00;;;16.90;99.90;;;;;;5073312;28;20131;-65
2022/06/28 03:38:11;;;;;;;9.52;5.53;;;16.90;99.90;;;;;;5072198;28;20048;-64
2022/06/28 03:40:58;;;;;;;10.70;6.05;;;16.90;99.90;;;;;;5057881;28;20420;-65
2022/06/28 03:43:25;;;;;;;8.40;5.35;;;16.90;99.90;;;;;;5073140;28;20136;-64
2022/06/28 03:45:54;;;;;;;9.13;5.25;;;16.90;99.90;;;;;;5064025;28;20041;-65
2022/06/28 03:48:57;;;;;;;9.65;5.70;;;16.90;99.90;;;;;;5046889;28;20056;-65
2022/06/28 03:51:36;;;;;;;7.25;5.75;;;16.80;99.90;;;;;;5052659;28;20523;-64
2022/06/28 03:54:23;;;;;;;8.13;6.05;;;16.80;99.90;;;;;;5060826;28;20448;-65
2022/06/28 03:57:00;;;;;;;7.72;5.95;;;16.90;99.90;;;;;;5061396;28;20094;-65
2022/06/28 03:59:27;;;;;;;8.80;5.72;;;16.90;99.90;;;;;;5054234;28;20071;-65
2022/06/28 04:01:54;;;;;;;9.45;5.95;;;16.90;99.90;;;;;;5052469;28;20091;-65
2022/06/28 04:04:23;;;;;;;7.18;5.80;;;16.90;99.90;;;;;;5063423;28;20045;-65
2022/06/28 04:06:50;;;;;;;8.45;5.90;;;16.90;99.90;;;;;;5071218;28;20044;-65
2022/06/28 04:09:17;;;;;;;9.70;5.50;;;16.90;99.90;;;;;;5073319;28;20037;-65
2022/06/28 04:11:48;;;;;;;8.45;5.15;;;16.80;99.90;;;;;;5062611;28;20049;-64
2022/06/28 04:14:15;;;;;;;6.70;4.75;;;16.80;99.90;;;;;;5058753;28;20493;-64
2022/06/28 04:16:42;;;;;;;9.32;5.13;;;16.70;99.90;;;;;;5053823;28;20049;-64
2022/06/28 04:19:12;;;;;;;9.27;5.35;;;16.70;99.90;;;;;;5066538;28;20040;-65
2022/06/28 04:21:46;;;;;;;8.88;5.50;;;16.60;99.90;;;;;;5067405;28;20045;-65
2022/06/28 04:24:16;;;;;;;5.63;4.57;;;16.70;99.90;;;;;;5068999;28;20489;-65
2022/06/28 04:26:57;;;;;;;9.43;4.72;;;16.60;99.90;;;;;;5067548;28;20051;-65
2022/06/28 04:29:26;;;;;;;6.18;4.85;;;16.60;99.90;;;;;;5070139;28;20040;-65
2022/06/28 04:31:53;;;;;;;6.78;5.10;;;16.50;99.90;;;;;;5069666;28;20048;-65
2022/06/28 04:34:21;;;;;;;12.73;5.38;;;16.60;99.90;;;;;;5070161;28;20053;-65
2022/06/28 04:36:54;;;;;;;6.22;5.20;;;16.60;99.90;;;;;;5067088;28;20052;-65
2022/06/28 04:39:21;;;;;;;7.63;4.53;;;16.60;99.90;;;;;;5070723;28;20044;-65
2022/06/28 04:42:06;;;;;;;11.82;5.55;;;16.60;99.90;;;;;;5059015;28;20053;-64
2022/06/28 04:44:35;;;;;;;5.00;4.07;;;16.60;99.90;;;;;;5053340;28;20041;-64
2022/06/28 04:47:03;;;;;;;;;;;16.60;99.90;;;;;;5055737;28;20452;-64
2022/06/28 04:49:31;;;;;;;;;;;16.60;99.90;;;;;;5071983;28;19931;-65
2022/06/28 04:51:58;;;;;;;7.22;3.60;;;16.60;99.90;;;;;;5071445;28;19920;-65
2022/06/28 04:54:32;;;;;;;7.80;4.35;;;16.70;99.90;;;;;;5071875;28;20409;-65
2022/06/28 04:57:19;;;;;;;7.60;3.53;;;16.80;99.90;;;;;;5059857;28;20067;-65
2022/06/28 04:59:53;;;;;;;4.97;3.75;;;16.90;99.90;;;;;;5055660;28;20045;-65
2022/06/28 05:02:31;;;;;;;5.57;3.45;;;16.90;99.90;;;;;;5060737;28;20037;-64
2022/06/28 05:05:02;;;;;;;5.45;2.80;;;17.00;99.90;;;;;;5070732;28;20424;-64
2022/06/28 05:07:36;;;;;;;6.82;3.50;;;17.10;99.90;;;;;;5060539;28;20036;-64
2022/06/28 05:10:07;;;;;;;6.00;3.58;;;17.10;99.90;;;;;;5068142;28;20040;-64
2022/06/28 05:12:38;;;;;;;5.57;3.85;;;17.20;99.90;;;;;;5067046;28;20156;-64
2022/06/28 05:15:07;;;;;;;7.22;3.80;;;17.10;99.90;;;;;;5063052;28;20037;-64
2022/06/28 05:17:53;;;;;;;5.43;3.17;;;17.20;99.90;;;;;;5053196;28;20581;-64
2022/06/28 05:20:20;;;;;;;4.47;3.60;;;17.20;99.90;;;;;;5049711;28;20045;-64
2022/06/28 05:22:47;;;;;;;3.72;3.03;;;17.10;99.90;;;;;;5056770;28;20127;-64
2022/06/28 05:25:37;;;;;;;6.13;3.22;;;17.10;99.90;;;;;;5058946;28;20483;-64
2022/06/28 05:28:04;;;;;;;11.10;6.75;;;17.00;99.90;;;;;;5070889;28;20049;-64
2022/06/28 05:30:31;;;;;;;9.80;7.03;;;17.10;99.90;;;;;;5056563;28;20048;-64
2022/06/28 05:32:58;;;;;;;4.70;3.72;;;17.10;99.90;;;;;;5065226;28;20094;-64
2022/06/28 05:35:24;;;;;;;5.65;3.40;;;17.20;99.90;;;;;;5055409;28;20045;-64
2022/06/28 05:37:51;;;;;;;3.83;2.88;;;17.30;99.90;;;;;;5050110;28;20490;-64
2022/06/28 05:40:18;;;;;;;4.53;2.70;;;17.40;99.90;;;;;;5053553;28;20037;-64
2022/06/28 05:42:45;;;;;;;4.30;3.10;;;17.50;99.90;;;;;;5064947;28;20249;-64
2022/06/28 05:45:12;;;;;;;7.00;2.70;;;17.70;99.90;;;;;;5060981;28;20048;-64
2022/06/28 05:47:38;;;;;;;4.05;2.92;;;17.80;99.90;;;;;;5058427;28;20494;-64
2022/06/28 05:50:06;;;;;;;6.25;2.38;;;17.80;99.90;;;;;;5054005;28;20051;-64
2022/06/28 05:52:33;;;;;;;6.35;2.83;;;17.90;99.90;;;;;;5063668;28;20041;-64
2022/06/28 05:54:59;;;;;;;6.32;2.90;;;18.00;99.90;;;;;;5070067;28;20060;-64
2022/06/28 05:57:26;;;;;;;7.95;3.50;;;18.10;99.90;;;;;;5070061;28;20044;-64
2022/06/28 05:59:53;;;;;;;6.45;2.70;;;18.00;99.90;;;;;;5066208;28;20097;-64
2022/06/28 06:02:20;;;;;;;4.97;2.58;;;18.00;99.90;;;;;;5064491;28;20052;-64
2022/06/28 06:04:46;;;;;;;3.88;2.70;;;18.00;99.90;;;;;;5053034;28;20562;-64
2022/06/28 06:07:14;;;;;;;2.97;2.67;;;18.00;99.90;;;;;;5070075;28;20041;-64
2022/06/28 06:09:42;;;;;;;3.55;2.70;;;18.10;99.90;;;;;;5067738;28;20119;-64
2022/06/28 06:12:09;;;;;;;4.00;2.88;;;18.20;99.90;;;;;;5054143;28;20133;-64
2022/06/28 06:14:36;;;;;;;4.03;2.47;;;18.20;99.90;;;;;;5063844;28;20074;-64
2022/06/28 06:17:03;;;;;;;2.85;2.33;;;18.30;99.90;;;;;;5069176;28;20109;-64
2022/06/28 06:19:30;;;;;;;5.93;2.40;;;18.40;99.90;;;;;;5071512;28;20135;-65
2022/06/28 06:21:57;;;;;;;4.35;2.80;;;18.50;99.90;;;;;;5068429;28;20049;-65
2022/06/28 06:24:24;;;;;;;5.60;2.30;;;18.50;99.90;;;;;;5071399;28;20122;-65
2022/06/28 06:27:03;;;;;;;3.78;2.47;;;18.60;99.90;;;;;;5069477;28;20048;-65
2022/06/28 06:29:30;;;;;;;3.30;2.20;;;18.60;99.90;;;;;;5062572;28;20369;-65
2022/06/28 06:31:57;;;;;;;2.78;2.45;;;18.50;99.90;;;;;;5049978;28;20045;-64
2022/06/28 06:34:56;;;;;;;3.13;2.72;;;18.30;99.90;;;;;;5051246;28;20456;-64
2022/06/28 06:37:23;;;;;;;10.15;2.55;;;18.30;99.90;;;;;;5055446;28;20099;-64
2022/06/28 06:39:49;;;;;;;3.78;2.35;;;18.40;99.90;;;;;;5057644;28;20048;-64
2022/06/28 06:42:16;;;;;;;3.85;2.33;;;18.50;99.90;;;;;;5049559;28;20041;-64
2022/06/28 06:44:46;;;;;;;2.38;2.10;;;18.60;99.90;;;;;;5049669;28;20087;-64
2022/06/28 06:47:14;;;;;;;3.00;2.33;;;18.70;99.90;;;;;;5058807;28;20098;-64
2022/06/28 06:49:41;;;;;;;2.97;2.22;;;18.90;99.90;;;;;;5067878;28;20044;-64
2022/06/28 06:52:07;;;;;;;7.80;3.10;;;18.90;99.90;;;;;;5068888;28;20048;-64
2022/06/28 06:54:40;;;;;;;5.13;2.53;;;18.90;99.90;;;;;;5068349;28;20135;-64
2022/06/28 06:57:08;;;;;;;9.57;2.70;;;18.90;99.90;;;;;;5057989;28;20490;-64
2022/06/28 06:59:35;;;;;;;5.65;3.17;;;18.80;99.90;;;;;;5049728;28;20057;-64
2022/06/28 07:02:02;;;;;;;6.93;3.38;;;18.90;99.90;;;;;;5049344;28;20052;-64
2022/06/28 07:04:39;;;;;;;4.93;3.38;;;18.80;99.90;;;;;;5060293;28;20048;-63
2022/06/28 07:07:06;;;;;;;3.67;3.20;;;18.80;99.90;;;;;;5063559;28;20075;-64
2022/06/28 07:09:33;;;;;;;5.00;3.28;;;18.80;99.90;;;;;;5070730;28;20049;-64
2022/06/28 07:11:59;;;;;;;4.20;3.30;;;18.70;99.90;;;;;;5068198;28;20057;-64
2022/06/28 07:14:26;;;;;;;5.47;3.60;;;18.80;99.90;;;;;;5054257;28;20051;-64
2022/06/28 07:16:55;;;;;;;3.38;3.03;;;19.00;99.90;;;;;;5069714;28;20385;-64
2022/06/28 07:19:22;;;;;;;4.82;3.50;;;19.20;99.90;;;;;;5069630;28;20411;-64
2022/06/28 07:21:50;;;;;;;4.75;3.10;;;19.40;99.90;;;;;;5068289;28;20052;-64
2022/06/28 07:24:19;;;;;;;5.88;3.33;;;19.60;99.90;;;;;;5065187;28;20120;-63
2022/06/28 07:26:46;;;;;;;6.03;3.28;;;19.80;99.90;;;;;;5067645;28;20057;-63
2022/06/28 07:29:14;;;;;;;;;;;19.80;99.90;;;;;;5069028;28;20041;-60
2022/06/28 07:31:41;;;;;;;9.38;3.28;;;20.00;99.90;;;;;;5073155;28;19921;-66
2022/06/28 07:34:09;;;;;;;4.03;3.28;;;20.10;99.90;;;;;;5061996;28;20420;-66
2022/06/28 07:36:36;;;;;;;5.03;3.58;;;20.10;99.90;;;;;;5070520;28;20048;-66
2022/06/28 07:39:03;;;;;;;;;;;20.10;99.90;;;;;;5069470;28;20056;-66
2022/06/28 07:41:30;;;;;;;4.13;2.95;;;20.20;99.90;;;;;;5061887;28;19928;-66
2022/06/28 07:44:26;;;;;;;2.97;2.45;;;20.30;99.90;;;;;;5051068;28;20202;-66
2022/06/28 07:46:52;;;;;;;5.32;2.95;;;20.20;99.90;;;;;;5052458;28;20084;-67
2022/06/28 07:49:20;;;;;;;3.85;2.38;;;20.40;99.90;;;;;;5052806;28;20455;-67
2022/06/28 07:54:37;;;;;;;4.75;2.63;;;20.60;99.90;;;;;;5072936;28;20041;-67
2022/06/28 07:57:11;;;;;;;3.28;2.58;;;20.60;99.90;;;;;;5072694;28;20508;-66
2022/06/28 07:59:41;;;;;;;3.53;2.60;;;20.70;99.90;;;;;;5071692;28;20519;-67
2022/06/28 08:02:08;;;;;;;3.35;3.00;;;20.70;99.90;;;;;;5066013;28;20534;-66
2022/06/28 08:04:44;;;;;;;3.13;2.80;;;20.80;99.90;;;;;;5062138;28;20041;-67
2022/06/28 08:07:12;;;;;;;2.83;2.50;;;20.90;99.90;;;;;;5064223;28;20076;-66
2022/06/28 08:09:39;;;;;;;4.03;2.13;;;20.90;99.90;;;;;;5083662;22;20064;-72
2022/06/28 08:12:06;;;;;;;;;;;20.90;99.90;;;;;;5033386;28;20041;-73
2022/06/28 08:14:34;;;;;;;3.67;2.63;;;21.10;99.90;;;;;;5051906;28;20015;-72
2022/06/28 08:17:02;;;;;;;4.15;2.53;;;21.20;99.90;;;;;;5031467;28;20079;-70
2022/06/28 08:19:30;;;;;;;3.72;2.72;;;21.30;99.90;;;;;;5030344;28;20467;-72
2022/06/28 08:21:57;;;;;;;4.53;2.70;;;21.30;99.90;;;;;;5043380;28;20067;-72
2022/06/28 08:24:24;;;;;;;;;;;21.30;99.90;;;;;;5052501;28;20098;-72
2022/06/28 08:26:53;;;;;;;6.30;2.83;;;21.40;99.90;;;;;;5035003;28;20019;-72
2022/06/28 08:29:21;;;;;;;4.18;3.10;;;21.40;99.90;;;;;;5035223;28;20052;-71
2022/06/28 08:31:48;;;;;;;3.10;2.80;;;21.30;99.90;;;;;;5051657;28;20044;-72
2022/06/28 08:34:15;;;;;;;7.22;3.38;;;21.40;99.90;;;;;;5052000;28;20409;-72
2022/06/28 08:36:42;;;;;;;5.55;3.40;;;21.40;99.90;;;;;;5052887;28;20151;-72
2022/06/28 08:39:08;;;;;;;4.38;3.67;;;21.40;99.90;;;;;;5053216;28;20378;-72
2022/06/28 08:41:37;;;;;;;5.07;3.80;;;21.40;99.90;;;;;;5052550;28;20060;-71
2022/06/28 08:44:04;;;;;;;6.22;4.00;;;21.40;99.90;;;;;;5053280;28;20041;-71
2022/06/28 08:46:32;;;;;;;4.60;4.20;;;21.30;99.90;;;;;;5052142;28;20037;-71
2022/06/28 08:49:04;;;;;;;4.20;3.90;;;21.40;99.90;;;;;;5052628;28;20462;-71
2022/06/28 08:51:33;;;;;;;5.30;4.72;;;21.20;99.90;;;;;;5052608;28;20043;-71
2022/06/28 08:54:02;;;;;;;5.32;4.53;;;21.10;99.90;;;;;;5035135;28;20386;-71
2022/06/28 08:56:29;;;;;;;5.75;5.15;;;20.90;99.90;;;;;;5052098;28;20045;-71
2022/06/28 08:58:59;;;;;;;8.88;5.93;;;20.80;99.90;;;;;;5052703;28;20094;-71
2022/06/28 09:01:27;;;;;;;10.02;5.85;;;20.80;99.90;;;;;;5052181;28;20440;-71
2022/06/28 09:03:55;;;;;;;6.43;4.88;;;20.80;99.90;;;;;;5051980;28;20052;-71
2022/06/28 09:06:23;;;;;;;7.18;5.30;;;20.80;99.90;;;;;;5052742;28;20069;-71
2022/06/28 09:08:50;;;;;;;5.55;5.00;;;20.80;99.90;;;;;;5052732;28;20051;-71
2022/06/28 09:11:17;;;;;;;6.47;5.50;;;21.00;99.90;;;;;;5051292;28;20087;-71
2022/06/28 09:13:44;;;;;;;5.40;4.90;;;21.10;99.90;;;;;;5052428;28;20540;-71
2022/06/28 09:16:13;;;;;;;6.78;5.20;;;21.40;99.90;;;;;;5052772;28;20195;-71
2022/06/28 09:18:40;;;;;;;5.57;5.07;;;21.40;99.90;;;;;;5051813;28;20049;-71
2022/06/28 09:21:09;;;;;;;6.97;5.55;;;21.40;99.90;;;;;;5051943;28;20107;-71
2022/06/28 09:23:42;;;;;;;6.68;6.03;;;21.40;99.90;;;;;;5052459;28;20037;-71
2022/06/28 09:26:21;;;;;;;5.75;5.22;;;21.30;99.90;;;;;;5052455;28;20179;-71
2022/06/28 09:28:51;;;;;;;5.68;5.05;;;21.40;99.90;;;;;;5051052;28;20052;-71
2022/06/28 09:31:22;;;;;;;6.40;5.78;;;21.30;99.90;;;;;;5051760;28;20041;-71
2022/06/28 09:34:03;;;;;;;6.50;5.78;;;21.00;99.90;;;;;;5052259;28;20485;-70
2022/06/28 09:36:33;;;;;;;6.18;5.57;;;20.80;99.90;;;;;;5052196;28;20053;-71
2022/06/28 09:39:19;;;;;;;11.80;5.68;;;20.60;99.90;;;;;;5050908;28;20051;-71
2022/06/28 09:41:52;;;;;;;7.15;6.45;;;20.30;99.90;;;;;;5051378;28;20508;-71
2022/06/28 09:44:38;;;;;;;7.95;6.80;;;20.40;99.90;;;;;;5052190;28;20033;-71
2022/06/28 09:47:06;;;;;;;7.43;6.72;;;20.50;99.90;;;;;;5050880;28;20044;-71
2022/06/28 09:49:37;;;;;;;11.05;8.02;;;20.30;99.90;;;;;;5051688;28;20048;-71
2022/06/28 09:52:04;;;;;;;9.20;8.25;;;20.20;99.90;;;;;;5052013;28;20106;-70
2022/06/28 09:54:33;;;;;;;8.63;7.85;;;20.20;99.90;;;;;;5051789;28;20045;-70
2022/06/28 09:57:01;;;;;;;8.30;7.53;;;20.20;99.90;;;;;;5050790;28;20044;-71
2022/06/28 09:59:28;;;;;;;9.27;7.85;;;20.10;99.90;;;;;;5051560;28;20474;-70
2022/06/28 10:01:55;;;;;;;;;;;20.10;99.90;;;;;;5051692;28;20041;-70
2022/06/28 10:04:24;;;;;;;8.80;7.88;;;20.20;99.90;;;;;;5050520;28;19920;-71
2022/06/28 10:06:51;;;;;;;10.32;8.68;;;20.20;99.90;;;;;;5051046;28;20044;-71
2022/06/28 10:09:20;;;;;;;8.95;8.07;;;20.20;99.90;;;;;;5051395;28;20049;-72
2022/06/28 10:17:35;;;;;;;8.80;7.90;;;20.00;99.90;;;;;;5031644;28;20487;-70
2022/06/28 10:20:10;;;;;;;10.95;7.43;;;19.90;99.90;;;;;;5013212;28;20049;-71
2022/06/28 10:22:36;;;;;;;10.05;7.53;;;19.70;99.90;;;;;;5050497;28;20033;-71
2022/06/28 10:25:14;;;;;;;9.07;7.97;;;19.60;99.90;;;;;;5051447;28;20041;-71
2022/06/28 10:27:48;;;;;;;8.32;7.53;;;19.50;99.90;;;;;;5051481;28;20045;-71
2022/06/28 10:30:21;;;;;;;9.52;6.63;;;19.60;99.90;;;;;;5049709;28;20055;-71
2022/06/28 10:33:02;;;;;;;8.40;7.03;;;19.50;99.90;;;;;;5050986;28;20056;-71
2022/06/28 10:35:32;;;;;;;7.93;6.88;;;19.40;99.90;;;;;;5051397;28;20110;-70
2022/06/28 10:38:07;;;;;;;10.48;7.15;;;19.40;99.90;;;;;;5051339;28;20072;-71
2022/06/28 10:40:52;;;;;;;10.27;8.45;;;19.60;99.90;;;;;;5049727;28;20075;-71
2022/06/28 10:43:28;;;;;;;9.00;6.95;;;19.70;99.90;;;;;;5046012;28;20040;-71
2022/06/28 10:46:04;;;;;;;11.13;6.60;;;19.80;99.90;;;;;;5051105;28;20056;-71
2022/06/28 10:48:51;;;;;;;7.97;7.18;;;19.90;99.90;;;;;;5051177;28;20044;-69
2022/06/28 10:51:19;;;;;;;7.70;6.90;;;19.90;99.90;;;;;;5031452;28;20059;-64
2022/06/28 10:54:00;;;;;;;8.13;7.00;;;19.80;99.90;;;;;;5050826;28;20072;-63
2022/06/28 10:56:42;;;;;;;8.88;6.60;;;20.00;99.90;;;;;;5050856;28;20557;-62
2022/06/28 10:59:11;;;;;;;8.32;6.65;;;20.00;99.90;;;;;;5049985;28;20044;-64
2022/06/28 11:01:44;;;;;;;7.75;6.90;;;20.00;99.90;;;;;;5049471;28;20037;-65
2022/06/28 11:04:18;;;;;;;7.28;6.57;;;20.00;99.90;;;;;;5048539;28;20048;-65
2022/06/28 11:07:01;;;;;;;8.75;6.88;;;20.00;99.90;;;;;;5050181;28;20448;-65
2022/06/28 11:09:51;;;;;;;7.95;6.82;;;20.00;99.90;;;;;;5049202;28;20042;-65
2022/06/28 11:12:18;;;;;;;9.45;6.65;;;20.00;99.90;;;;;;5050409;28;20053;-65
2022/06/28 11:14:52;;;;;;;8.45;6.70;;;20.10;99.90;;;;;;5050096;28;20432;-64
2022/06/28 11:17:32;;;;;;;7.38;6.63;;;20.20;99.90;;;;;;5049225;28;20045;-64
2022/06/28 11:20:23;;;;;;;8.93;6.82;;;20.40;99.90;;;;;;5052383;28;20052;-65
2022/06/28 11:22:51;;;;;;;7.57;6.30;;;20.40;99.90;;;;;;5045705;28;20068;-64
2022/06/28 11:25:25;;;;;;;7.47;6.40;;;20.40;99.90;;;;;;5053432;28;20041;-65
2022/06/28 11:27:58;;;;;;;7.75;6.20;;;20.40;99.90;;;;;;5054650;28;20037;-64
2022/06/28 11:30:27;;;;;;;8.30;6.70;;;20.40;99.90;;;;;;5053985;28;20052;-64
2022/06/28 11:32:55;;;;;;;11.20;6.65;;;20.30;99.90;;;;;;5054564;28;20409;-64
2022/06/28 11:35:24;;;;;;;9.05;6.65;;;20.30;99.90;;;;;;5053463;28;20053;-64
2022/06/28 11:38:03;;;;;;;8.68;6.40;;;20.20;99.90;;;;;;5054673;28;20060;-64
2022/06/28 11:40:40;;;;;;;7.85;6.78;;;20.10;99.90;;;;;;5036044;28;20040;-65
2022/06/28 11:43:10;;;;;;;9.20;6.87;;;20.10;99.90;;;;;;5053760;28;20478;-64
2022/06/28 11:45:49;;;;;;;7.30;6.60;;;20.00;99.90;;;;;;5036845;28;20040;-64
2022/06/28 11:48:29;;;;;;;8.90;6.57;;;20.00;99.90;;;;;;5054239;28;20334;-65
2022/06/28 11:50:58;;;;;;;7.93;6.45;;;20.00;99.90;;;;;;5053016;28;20065;-65
2022/06/28 11:53:27;;;;;;;7.13;6.43;;;20.20;99.90;;;;;;5054115;28;20055;-64
2022/06/28 11:55:55;;;;;;;7.18;6.47;;;20.30;99.90;;;;;;5054197;28;20048;-65
2022/06/28 11:58:33;;;;;;;9.23;6.50;;;20.30;99.90;;;;;;5053141;28;20114;-65
2022/06/28 12:01:07;;;;;;;8.65;6.40;;;20.40;99.90;;;;;;5053370;28;20098;-64
2022/06/28 12:03:57;;;;;;;8.38;6.43;;;20.40;99.90;;;;;;5054047;28;20083;-64
2022/06/28 12:06:28;;;;;;;10.18;6.80;;;20.50;99.90;;;;;;5053001;28;20040;-65
2022/06/28 12:09:06;;;;;;;7.88;7.07;;;20.40;99.90;;;;;;5053533;28;20111;-64
2022/06/28 12:11:44;;;;;;;9.60;7.25;;;20.30;99.90;;;;;;5053014;28;20052;-65
2022/06/28 12:14:30;;;;;;;7.30;6.32;;;20.30;99.90;;;;;;5053118;28;20052;-64
2022/06/28 12:17:00;;;;;;;9.38;6.97;;;20.10;99.90;;;;;;5053695;28;20098;-64
2022/06/28 12:19:30;;;;;;;8.90;6.60;;;20.00;99.90;;;;;;5053406;28;20076;-64
2022/06/28 12:22:17;;;;;;;6.97;6.10;;;20.00;99.90;;;;;;5052148;28;20052;-64
2022/06/28 12:24:55;;;;;;;8.15;6.45;;;19.90;99.90;;;;;;5053391;28;20037;-64
2022/06/28 12:27:31;;;;;;;6.63;6.03;;;20.00;99.90;;;;;;5053578;28;20045;-64
2022/06/28 12:29:59;;;;;;;6.88;5.55;;;20.00;99.90;;;;;;5052435;28;20049;-64
2022/06/28 12:32:27;;;;;;;10.55;5.55;;;20.00;99.90;;;;;;5033228;28;20077;-65
2022/06/28 12:35:16;;;;;;;8.93;5.97;;;20.00;99.90;;;;;;5042882;28;20049;-65
2022/06/28 12:37:42;;;;;;;7.50;5.72;;;20.00;99.90;;;;;;5050588;28;20405;-65
2022/06/28 12:40:11;;;;;;;7.18;5.80;;;20.00;99.90;;;;;;5051137;28;20044;-65
2022/06/28 12:42:38;;;;;;;8.35;6.13;;;20.00;99.90;;;;;;5052041;28;20041;-64
2022/06/28 12:45:06;;;;;;;6.90;5.82;;;20.00;99.90;;;;;;5051628;28;20453;-65
2022/06/28 12:47:35;;;;;;;5.80;5.20;;;20.00;99.90;;;;;;5052385;28;20037;-65
2022/06/28 12:50:05;;;;;;;11.50;6.25;;;20.00;99.90;;;;;;5049006;28;20048;-64
2022/06/28 12:52:34;;;;;;;7.30;6.60;;;20.00;99.90;;;;;;5051137;28;20523;-65
2022/06/28 12:55:01;;;;;;;11.65;6.32;;;19.90;99.90;;;;;;5051834;28;20041;-64
2022/06/28 12:57:28;;;;;;;8.32;6.13;;;20.00;99.90;;;;;;5051897;28;20063;-64
2022/06/28 12:59:56;;;;;;;8.38;6.13;;;19.90;99.90;;;;;;5050209;28;20127;-65
2022/06/28 13:02:23;;;;;;;7.82;5.63;;;19.90;99.90;;;;;;5051882;28;20037;-65
2022/06/28 13:04:51;;;;;;;7.03;5.90;;;19.90;99.90;;;;;;5051308;28;20040;-65
2022/06/28 13:07:20;;;;;;;13.88;5.65;;;19.90;99.90;;;;;;5051850;28;20045;-65
2022/06/28 13:09:47;;;;;;;8.43;5.68;;;19.90;99.90;;;;;;5050422;28;20041;-64
2022/06/28 13:12:14;;;;;;;5.97;5.38;;;19.80;99.90;;;;;;5051182;28;20033;-65
2022/06/28 13:14:47;;;;;;;6.35;5.18;;;19.80;99.90;;;;;;5051518;28;20460;-64
2022/06/28 13:17:20;;;;;;;5.97;5.38;;;19.80;99.90;;;;;;5049357;28;20048;-64
2022/06/28 13:19:47;;;;;;;7.25;6.00;;;19.80;99.90;;;;;;5050668;28;20072;-65
2022/06/28 13:22:34;;;;;;;11.93;5.70;;;19.80;99.90;;;;;;5060032;28;20095;-65